sensor_id;sensor_type;location;lat;lon;timestamp;temperature;humidity
32097;DHT22;18610;49.916;8.284;2022-07-23T00:01:02;22.30;92.90
32097;DHT22;18610;49.916;8.284;2022-07-23T00:03:29;22.30;92.80
32097;DHT22;18610;49.916;8.284;2022-07-23T00:05:56;22.30;92.90
32097;DHT22;18610;49.916;8.284;2022-07-23T00:08:22;22.20;93.00
32097;DHT22;18610;49.916;8.284;2022-07-23T00:10:49;22.10;93.20
32097;DHT22;18610;49.916;8.284;2022-07-23T00:13:16;22.10;93.30
32097;DHT22;18610;49.916;8.284;2022-07-23T00:15:43;22.00;93.50
32097;DHT22;18610;49.916;8.284;2022-07-23T00:18:11;22.00;93.80
32097;DHT22;18610;49.916;8.284;2022-07-23T00:20:38;21.90;94.40
32097;DHT22;18610;49.916;8.284;2022-07-23T00:23:04;21.90;94.30
32097;DHT22;18610;49.916;8.284;2022-07-23T00:25:31;21.80;94.40
32097;DHT22;18610;49.916;8.284;2022-07-23T00:27:59;21.80;94.50
32097;DHT22;18610;49.916;8.284;2022-07-23T00:30:26;21.90;94.50
32097;DHT22;18610;49.916;8.284;2022-07-23T00:32:57;21.90;94.40
32097;DHT22;18610;49.916;8.284;2022-07-23T00:35:26;21.90;94.50
32097;DHT22;18610;49.916;8.284;2022-07-23T00:37:54;21.90;95.00
32097;DHT22;18610;49.916;8.284;2022-07-23T00:40:21;21.90;94.70
32097;DHT22;18610;49.916;8.284;2022-07-23T00:42:48;21.90;94.80
32097;DHT22;18610;49.916;8.284;2022-07-23T00:45:15;21.90;94.90
32097;DHT22;18610;49.916;8.284;2022-07-23T00:47:42;21.90;95.10
32097;DHT22;18610;49.916;8.284;2022-07-23T00:50:10;21.90;95.00
32097;DHT22;18610;49.916;8.284;2022-07-23T00:52:39;21.80;95.10
32097;DHT22;18610;49.916;8.284;2022-07-23T00:55:09;21.80;95.30
32097;DHT22;18610;49.916;8.284;2022-07-23T00:57:36;21.80;95.40
32097;DHT22;18610;49.916;8.284;2022-07-23T01:00:05;21.80;95.40
32097;DHT22;18610;49.916;8.284;2022-07-23T01:02:32;21.80;95.40
32097;DHT22;18610;49.916;8.284;2022-07-23T01:04:59;21.70;95.60
32097;DHT22;18610;49.916;8.284;2022-07-23T01:07:26;21.60;95.70
32097;DHT22;18610;49.916;8.284;2022-07-23T01:09:54;21.60;95.90
32097;DHT22;18610;49.916;8.284;2022-07-23T01:12:21;21.50;96.30
32097;DHT22;18610;49.916;8.284;2022-07-23T01:14:53;21.50;97.90
32097;DHT22;18610;49.916;8.284;2022-07-23T01:17:20;21.40;99.50
32097;DHT22;18610;49.916;8.284;2022-07-23T01:19:47;21.40;99.90
32097;DHT22;18610;49.916;8.284;2022-07-23T01:22:15;21.30;99.90
32097;DHT22;18610;49.916;8.284;2022-07-23T01:24:45;21.20;99.90
32097;DHT22;18610;49.916;8.284;2022-07-23T01:27:13;21.00;99.90
32097;DHT22;18610;49.916;8.284;2022-07-23T01:29:40;20.80;99.90
32097;DHT22;18610;49.916;8.284;2022-07-23T01:32:06;20.70;99.90
32097;DHT22;18610;49.916;8.284;2022-07-23T01:34:33;20.50;99.90
32097;DHT22;18610;49.916;8.284;2022-07-23T01:37:00;20.40;99.90
32097;DHT22;18610;49.916;8.284;2022-07-23T01:39:27;20.30;99.90
32097;DHT22;18610;49.916;8.284;2022-07-23T01:41:55;20.20;99.90
32097;DHT22;18610;49.916;8.284;2022-07-23T01:44:22;20.10;99.90
32097;DHT22;18610;49.916;8.284;2022-07-23T01:46:48;20.10;99.90
32097;DHT22;18610;49.916;8.284;2022-07-23T01:49:15;20.00;99.90
32097;DHT22;18610;49.916;8.284;2022-07-23T01:51:42;19.90;99.90
32097;DHT22;18610;49.916;8.284;2022-07-23T01:54:23;19.90;99.90
32097;DHT22;18610;49.916;8.284;2022-07-23T01:56:50;19.90;99.90
32097;DHT22;18610;49.916;8.284;2022-07-23T01:59:18;19.90;99.90
32097;DHT22;18610;49.916;8.284;2022-07-23T02:01:45;19.90;99.90
32097;DHT22;18610;49.916;8.284;2022-07-23T02:04:11;19.90;99.90
32097;DHT22;18610;49.916;8.284;2022-07-23T02:06:38;20.00;99.90
32097;DHT22;18610;49.916;8.284;2022-07-23T02:09:05;20.10;99.90
32097;DHT22;18610;49.916;8.284;2022-07-23T02:11:32;20.10;99.90
32097;DHT22;18610;49.916;8.284;2022-07-23T02:13:59;20.10;99.90
32097;DHT22;18610;49.916;8.284;2022-07-23T02:16:27;20.20;99.90
32097;DHT22;18610;49.916;8.284;2022-07-23T02:18:55;20.20;99.90
32097;DHT22;18610;49.916;8.284;2022-07-23T02:21:22;20.20;99.90
32097;DHT22;18610;49.916;8.284;2022-07-23T02:23:49;20.20;99.90
32097;DHT22;18610;49.916;8.284;2022-07-23T02:26:15;20.20;99.90
32097;DHT22;18610;49.916;8.284;2022-07-23T02:28:42;20.20;99.90
32097;DHT22;18610;49.916;8.284;2022-07-23T02:31:09;20.20;99.90
32097;DHT22;18610;49.916;8.284;2022-07-23T02:33:37;20.20;99.90
32097;DHT22;18610;49.916;8.284;2022-07-23T02:36:04;20.20;99.90
32097;DHT22;18610;49.916;8.284;2022-07-23T02:38:31;20.20;99.90
32097;DHT22;18610;49.916;8.284;2022-07-23T02:40:58;20.20;99.90
32097;DHT22;18610;49.916;8.284;2022-07-23T02:43:25;20.30;99.90
32097;DHT22;18610;49.916;8.284;2022-07-23T02:45:51;20.30;99.90
32097;DHT22;18610;49.916;8.284;2022-07-23T02:48:18;20.30;99.90
32097;DHT22;18610;49.916;8.284;2022-07-23T02:50:46;20.30;99.90
32097;DHT22;18610;49.916;8.284;2022-07-23T02:53:13;20.30;99.90
32097;DHT22;18610;49.916;8.284;2022-07-23T02:55:40;20.30;99.90
32097;DHT22;18610;49.916;8.284;2022-07-23T02:58:06;20.30;99.90
32097;DHT22;18610;49.916;8.284;2022-07-23T03:00:33;20.30;99.90
32097;DHT22;18610;49.916;8.284;2022-07-23T03:03:00;20.30;99.90
32097;DHT22;18610;49.916;8.284;2022-07-23T03:05:27;20.20;99.90
32097;DHT22;18610;49.916;8.284;2022-07-23T03:07:55;20.20;99.90
32097;DHT22;18610;49.916;8.284;2022-07-23T03:10:22;20.20;99.90
32097;DHT22;18610;49.916;8.284;2022-07-23T03:12:48;20.20;99.90
32097;DHT22;18610;49.916;8.284;2022-07-23T03:15:15;20.20;99.90
32097;DHT22;18610;49.916;8.284;2022-07-23T03:17:42;20.20;99.90
32097;DHT22;18610;49.916;8.284;2022-07-23T03:20:09;20.20;99.90
32097;DHT22;18610;49.916;8.284;2022-07-23T03:22:36;20.20;99.90
32097;DHT22;18610;49.916;8.284;2022-07-23T03:25:05;20.30;99.90
32097;DHT22;18610;49.916;8.284;2022-07-23T03:27:32;20.20;99.90
32097;DHT22;18610;49.916;8.284;2022-07-23T03:29:59;20.20;99.90
32097;DHT22;18610;49.916;8.284;2022-07-23T03:32:27;20.20;99.90
32097;DHT22;18610;49.916;8.284;2022-07-23T03:34:54;20.10;99.90
32097;DHT22;18610;49.916;8.284;2022-07-23T03:37:21;20.00;99.90
32097;DHT22;18610;49.916;8.284;2022-07-23T03:39:48;20.00;99.90
32097;DHT22;18610;49.916;8.284;2022-07-23T03:42:16;19.90;99.90
32097;DHT22;18610;49.916;8.284;2022-07-23T03:44:43;19.90;99.90
32097;DHT22;18610;49.916;8.284;2022-07-23T03:47:09;19.80;99.90
32097;DHT22;18610;49.916;8.284;2022-07-23T03:49:36;19.80;99.90
32097;DHT22;18610;49.916;8.284;2022-07-23T03:52:04;19.80;99.90
32097;DHT22;18610;49.916;8.284;2022-07-23T03:54:31;19.80;99.90
32097;DHT22;18610;49.916;8.284;2022-07-23T03:56:58;19.80;99.90
32097;DHT22;18610;49.916;8.284;2022-07-23T03:59:26;19.80;99.90
32097;DHT22;18610;49.916;8.284;2022-07-23T04:01:53;19.80;99.90
32097;DHT22;18610;49.916;8.284;2022-07-23T04:04:20;19.80;99.90
32097;DHT22;18610;49.916;8.284;2022-07-23T04:06:46;19.80;99.90
32097;DHT22;18610;49.916;8.284;2022-07-23T04:09:13;19.80;99.90
32097;DHT22;18610;49.916;8.284;2022-07-23T04:11:40;19.80;99.90
32097;DHT22;18610;49.916;8.284;2022-07-23T04:14:07;19.90;99.90
32097;DHT22;18610;49.916;8.284;2022-07-23T04:16:35;19.90;99.90
32097;DHT22;18610;49.916;8.284;2022-07-23T04:19:02;19.90;99.90
32097;DHT22;18610;49.916;8.284;2022-07-23T04:21:29;19.90;99.90
32097;DHT22;18610;49.916;8.284;2022-07-23T04:23:56;19.90;99.90
32097;DHT22;18610;49.916;8.284;2022-07-23T04:26:23;20.00;99.90
32097;DHT22;18610;49.916;8.284;2022-07-23T04:28:50;20.00;99.90
32097;DHT22;18610;49.916;8.284;2022-07-23T04:31:17;20.10;99.90
32097;DHT22;18610;49.916;8.284;2022-07-23T04:33:45;20.10;99.90
32097;DHT22;18610;49.916;8.284;2022-07-23T04:36:11;20.20;99.90
32097;DHT22;18610;49.916;8.284;2022-07-23T04:38:38;20.20;99.90
32097;DHT22;18610;49.916;8.284;2022-07-23T04:41:05;20.20;99.90
32097;DHT22;18610;49.916;8.284;2022-07-23T04:43:32;20.20;99.90
32097;DHT22;18610;49.916;8.284;2022-07-23T04:45:58;20.30;99.90
32097;DHT22;18610;49.916;8.284;2022-07-23T04:48:25;20.30;99.90
32097;DHT22;18610;49.916;8.284;2022-07-23T04:50:54;20.30;99.90
32097;DHT22;18610;49.916;8.284;2022-07-23T04:53:20;20.30;99.90
32097;DHT22;18610;49.916;8.284;2022-07-23T04:55:47;20.30;99.90
32097;DHT22;18610;49.916;8.284;2022-07-23T04:58:14;20.30;99.90
32097;DHT22;18610;49.916;8.284;2022-07-23T05:00:41;20.30;99.90
32097;DHT22;18610;49.916;8.284;2022-07-23T05:03:08;20.40;99.90
32097;DHT22;18610;49.916;8.284;2022-07-23T05:05:35;20.40;99.90
32097;DHT22;18610;49.916;8.284;2022-07-23T05:08:03;20.30;99.90
32097;DHT22;18610;49.916;8.284;2022-07-23T05:10:30;20.40;99.90
32097;DHT22;18610;49.916;8.284;2022-07-23T05:12:57;20.40;99.90
32097;DHT22;18610;49.916;8.284;2022-07-23T05:15:24;20.40;99.90
32097;DHT22;18610;49.916;8.284;2022-07-23T05:17:50;20.50;99.90
32097;DHT22;18610;49.916;8.284;2022-07-23T05:20:17;20.40;99.90
32097;DHT22;18610;49.916;8.284;2022-07-23T05:22:44;20.50;99.90
32097;DHT22;18610;49.916;8.284;2022-07-23T05:25:12;20.50;99.90
32097;DHT22;18610;49.916;8.284;2022-07-23T05:27:39;20.50;99.90
32097;DHT22;18610;49.916;8.284;2022-07-23T05:30:07;20.50;99.90
32097;DHT22;18610;49.916;8.284;2022-07-23T05:32:34;20.50;99.90
32097;DHT22;18610;49.916;8.284;2022-07-23T05:35:02;20.50;99.90
32097;DHT22;18610;49.916;8.284;2022-07-23T05:37:29;20.40;99.90
32097;DHT22;18610;49.916;8.284;2022-07-23T05:39:59;20.40;99.90
32097;DHT22;18610;49.916;8.284;2022-07-23T05:42:27;20.50;99.90
32097;DHT22;18610;49.916;8.284;2022-07-23T05:44:54;20.50;99.90
32097;DHT22;18610;49.916;8.284;2022-07-23T05:47:21;20.50;99.90
32097;DHT22;18610;49.916;8.284;2022-07-23T05:49:47;20.60;99.90
32097;DHT22;18610;49.916;8.284;2022-07-23T05:52:14;20.60;99.90
32097;DHT22;18610;49.916;8.284;2022-07-23T05:54:41;20.70;99.90
32097;DHT22;18610;49.916;8.284;2022-07-23T05:57:08;20.80;99.90
32097;DHT22;18610;49.916;8.284;2022-07-23T05:59:36;20.90;99.90
32097;DHT22;18610;49.916;8.284;2022-07-23T06:02:03;21.00;99.90
32097;DHT22;18610;49.916;8.284;2022-07-23T06:04:30;21.10;99.90
32097;DHT22;18610;49.916;8.284;2022-07-23T06:06:57;21.20;99.90
32097;DHT22;18610;49.916;8.284;2022-07-23T06:09:23;21.20;99.90
32097;DHT22;18610;49.916;8.284;2022-07-23T06:11:50;21.30;99.90
32097;DHT22;18610;49.916;8.284;2022-07-23T06:14:17;21.40;99.90
32097;DHT22;18610;49.916;8.284;2022-07-23T06:16:45;21.60;99.90
32097;DHT22;18610;49.916;8.284;2022-07-23T06:19:12;21.70;99.90
32097;DHT22;18610;49.916;8.284;2022-07-23T06:21:39;21.80;99.90
32097;DHT22;18610;49.916;8.284;2022-07-23T06:24:06;21.80;99.90
32097;DHT22;18610;49.916;8.284;2022-07-23T06:26:33;21.90;99.90
32097;DHT22;18610;49.916;8.284;2022-07-23T06:28:59;22.00;99.90
32097;DHT22;18610;49.916;8.284;2022-07-23T06:31:26;22.10;99.90
32097;DHT22;18610;49.916;8.284;2022-07-23T06:33:54;22.20;99.90
32097;DHT22;18610;49.916;8.284;2022-07-23T06:36:21;22.30;99.90
32097;DHT22;18610;49.916;8.284;2022-07-23T06:38:48;22.40;99.90
32097;DHT22;18610;49.916;8.284;2022-07-23T06:41:15;22.50;99.90
32097;DHT22;18610;49.916;8.284;2022-07-23T06:43:41;22.50;99.90
32097;DHT22;18610;49.916;8.284;2022-07-23T06:46:08;22.50;99.90
32097;DHT22;18610;49.916;8.284;2022-07-23T06:48:35;22.60;99.90
32097;DHT22;18610;49.916;8.284;2022-07-23T06:51:04;22.70;99.90
32097;DHT22;18610;49.916;8.284;2022-07-23T06:53:30;22.80;99.90
32097;DHT22;18610;49.916;8.284;2022-07-23T06:55:57;22.90;99.90
32097;DHT22;18610;49.916;8.284;2022-07-23T06:58:24;23.20;99.90
32097;DHT22;18610;49.916;8.284;2022-07-23T07:00:51;23.30;99.90
32097;DHT22;18610;49.916;8.284;2022-07-23T07:03:18;23.40;99.90
32097;DHT22;18610;49.916;8.284;2022-07-23T07:05:45;23.60;99.90
32097;DHT22;18610;49.916;8.284;2022-07-23T07:08:13;23.60;99.90
32097;DHT22;18610;49.916;8.284;2022-07-23T07:10:41;23.60;99.80
32097;DHT22;18610;49.916;8.284;2022-07-23T07:13:08;23.60;99.50
32097;DHT22;18610;49.916;8.284;2022-07-23T07:15:35;23.60;99.90
32097;DHT22;18610;49.916;8.284;2022-07-23T07:18:01;23.60;99.60
32097;DHT22;18610;49.916;8.284;2022-07-23T07:20:28;23.70;99.80
32097;DHT22;18610;49.916;8.284;2022-07-23T07:22:55;23.80;99.70
32097;DHT22;18610;49.916;8.284;2022-07-23T07:25:23;23.80;99.00
32097;DHT22;18610;49.916;8.284;2022-07-23T07:27:50;23.90;98.90
32097;DHT22;18610;49.916;8.284;2022-07-23T07:30:17;23.90;98.60
32097;DHT22;18610;49.916;8.284;2022-07-23T07:32:44;24.10;98.70
32097;DHT22;18610;49.916;8.284;2022-07-23T07:35:10;24.20;98.80
32097;DHT22;18610;49.916;8.284;2022-07-23T07:37:37;24.30;98.20
32097;DHT22;18610;49.916;8.284;2022-07-23T07:40:05;24.40;97.90
32097;DHT22;18610;49.916;8.284;2022-07-23T07:42:33;24.40;97.40
32097;DHT22;18610;49.916;8.284;2022-07-23T07:45:00;24.40;97.30
32097;DHT22;18610;49.916;8.284;2022-07-23T07:47:27;24.50;97.20
32097;DHT22;18610;49.916;8.284;2022-07-23T07:49:54;24.60;97.00
32097;DHT22;18610;49.916;8.284;2022-07-23T07:52:21;24.70;96.50
32097;DHT22;18610;49.916;8.284;2022-07-23T07:54:48;24.70;96.60
32097;DHT22;18610;49.916;8.284;2022-07-23T07:57:15;24.80;96.40
32097;DHT22;18610;49.916;8.284;2022-07-23T07:59:43;24.90;96.10
32097;DHT22;18610;49.916;8.284;2022-07-23T08:02:10;25.00;95.70
32097;DHT22;18610;49.916;8.284;2022-07-23T08:04:37;25.00;95.80
32097;DHT22;18610;49.916;8.284;2022-07-23T08:07:03;24.90;96.10
32097;DHT22;18610;49.916;8.284;2022-07-23T08:09:30;25.00;96.00
32097;DHT22;18610;49.916;8.284;2022-07-23T08:11:57;25.10;95.40
32097;DHT22;18610;49.916;8.284;2022-07-23T08:14:24;25.20;95.50
32097;DHT22;18610;49.916;8.284;2022-07-23T08:16:52;25.20;95.60
32097;DHT22;18610;49.916;8.284;2022-07-23T08:19:19;25.40;95.50
32097;DHT22;18610;49.916;8.284;2022-07-23T08:21:45;25.70;95.10
32097;DHT22;18610;49.916;8.284;2022-07-23T08:24:12;26.00;94.70
32097;DHT22;18610;49.916;8.284;2022-07-23T08:26:39;26.20;94.00
32097;DHT22;18610;49.916;8.284;2022-07-23T08:29:06;26.30;93.80
32097;DHT22;18610;49.916;8.284;2022-07-23T08:31:33;26.30;93.90
32097;DHT22;18610;49.916;8.284;2022-07-23T08:34:01;26.40;93.30
32097;DHT22;18610;49.916;8.284;2022-07-23T08:36:28;26.60;93.30
32097;DHT22;18610;49.916;8.284;2022-07-23T08:38:57;26.70;92.60
32097;DHT22;18610;49.916;8.284;2022-07-23T08:41:24;26.80;92.40
32097;DHT22;18610;49.916;8.284;2022-07-23T08:43:51;26.80;92.00
32097;DHT22;18610;49.916;8.284;2022-07-23T08:46:19;26.90;92.20
32097;DHT22;18610;49.916;8.284;2022-07-23T08:48:48;26.90;91.80
32097;DHT22;18610;49.916;8.284;2022-07-23T08:51:17;27.00;92.20
32097;DHT22;18610;49.916;8.284;2022-07-23T08:53:44;27.20;92.00
32097;DHT22;18610;49.916;8.284;2022-07-23T08:56:11;27.30;91.40
32097;DHT22;18610;49.916;8.284;2022-07-23T08:58:38;27.40;90.20
32097;DHT22;18610;49.916;8.284;2022-07-23T09:01:05;27.40;90.40
32097;DHT22;18610;49.916;8.284;2022-07-23T09:03:34;27.30;90.00
32097;DHT22;18610;49.916;8.284;2022-07-23T09:06:01;27.40;88.60
32097;DHT22;18610;49.916;8.284;2022-07-23T09:08:36;27.50;88.60
32097;DHT22;18610;49.916;8.284;2022-07-23T09:11:05;27.70;86.90
32097;DHT22;18610;49.916;8.284;2022-07-23T09:13:37;27.70;85.10
32097;DHT22;18610;49.916;8.284;2022-07-23T09:16:06;27.60;85.60
32097;DHT22;18610;49.916;8.284;2022-07-23T09:18:39;27.80;85.20
32097;DHT22;18610;49.916;8.284;2022-07-23T09:21:21;28.00;84.70
32097;DHT22;18610;49.916;8.284;2022-07-23T09:23:54;28.00;84.00
32097;DHT22;18610;49.916;8.284;2022-07-23T09:26:35;28.00;83.00
32097;DHT22;18610;49.916;8.284;2022-07-23T09:29:10;28.00;84.10
32097;DHT22;18610;49.916;8.284;2022-07-23T09:31:49;28.00;83.80
32097;DHT22;18610;49.916;8.284;2022-07-23T09:34:20;28.20;82.70
32097;DHT22;18610;49.916;8.284;2022-07-23T09:36:48;28.10;81.10
32097;DHT22;18610;49.916;8.284;2022-07-23T09:39:25;28.00;81.80
32097;DHT22;18610;49.916;8.284;2022-07-23T09:41:52;27.80;82.30
32097;DHT22;18610;49.916;8.284;2022-07-23T09:44:20;27.80;82.90
32097;DHT22;18610;49.916;8.284;2022-07-23T09:46:49;28.00;78.60
32097;DHT22;18610;49.916;8.284;2022-07-23T09:49:18;28.20;77.70
32097;DHT22;18610;49.916;8.284;2022-07-23T09:51:53;28.30;78.40
32097;DHT22;18610;49.916;8.284;2022-07-23T09:54:29;28.30;76.90
32097;DHT22;18610;49.916;8.284;2022-07-23T09:56:58;28.40;75.90
32097;DHT22;18610;49.916;8.284;2022-07-23T09:59:27;28.60;76.80
32097;DHT22;18610;49.916;8.284;2022-07-23T10:01:55;28.80;79.10
32097;DHT22;18610;49.916;8.284;2022-07-23T10:04:23;29.00;73.40
32097;DHT22;18610;49.916;8.284;2022-07-23T10:06:52;29.10;71.80
32097;DHT22;18610;49.916;8.284;2022-07-23T10:09:24;29.30;70.10
32097;DHT22;18610;49.916;8.284;2022-07-23T10:11:53;29.50;67.00
32097;DHT22;18610;49.916;8.284;2022-07-23T10:14:22;29.50;66.70
32097;DHT22;18610;49.916;8.284;2022-07-23T10:16:49;29.70;66.60
32097;DHT22;18610;49.916;8.284;2022-07-23T10:19:16;29.90;65.60
32097;DHT22;18610;49.916;8.284;2022-07-23T10:21:47;30.00;65.50
32097;DHT22;18610;49.916;8.284;2022-07-23T10:24:27;30.20;63.10
32097;DHT22;18610;49.916;8.284;2022-07-23T10:27:02;30.10;63.40
32097;DHT22;18610;49.916;8.284;2022-07-23T10:29:39;29.90;64.10
32097;DHT22;18610;49.916;8.284;2022-07-23T10:32:17;29.70;63.60
32097;DHT22;18610;49.916;8.284;2022-07-23T10:34:51;29.40;63.10
32097;DHT22;18610;49.916;8.284;2022-07-23T10:37:22;29.20;63.20
32097;DHT22;18610;49.916;8.284;2022-07-23T10:40:09;29.20;64.70
32097;DHT22;18610;49.916;8.284;2022-07-23T10:42:36;29.40;64.60
32097;DHT22;18610;49.916;8.284;2022-07-23T10:45:22;29.70;62.90
32097;DHT22;18610;49.916;8.284;2022-07-23T10:47:49;30.00;61.20
32097;DHT22;18610;49.916;8.284;2022-07-23T10:50:22;30.30;59.30
32097;DHT22;18610;49.916;8.284;2022-07-23T10:53:08;30.60;58.50
32097;DHT22;18610;49.916;8.284;2022-07-23T10:55:43;30.30;57.10
32097;DHT22;18610;49.916;8.284;2022-07-23T10:58:10;29.80;58.20
32097;DHT22;18610;49.916;8.284;2022-07-23T11:00:38;29.70;59.30
32097;DHT22;18610;49.916;8.284;2022-07-23T11:03:27;29.80;59.80
32097;DHT22;18610;49.916;8.284;2022-07-23T11:05:54;29.80;58.90
32097;DHT22;18610;49.916;8.284;2022-07-23T11:08:21;29.70;59.10
32097;DHT22;18610;49.916;8.284;2022-07-23T11:10:51;29.60;59.30
32097;DHT22;18610;49.916;8.284;2022-07-23T11:13:35;29.60;59.60
32097;DHT22;18610;49.916;8.284;2022-07-23T11:16:24;29.70;59.00
32097;DHT22;18610;49.916;8.284;2022-07-23T11:21:45;29.70;59.30
32097;DHT22;18610;49.916;8.284;2022-07-23T11:24:14;29.60;59.10
32097;DHT22;18610;49.916;8.284;2022-07-23T11:26:44;29.80;59.40
32097;DHT22;18610;49.916;8.284;2022-07-23T11:29:45;29.90;58.20
32097;DHT22;18610;49.916;8.284;2022-07-23T11:32:34;29.90;58.00
32097;DHT22;18610;49.916;8.284;2022-07-23T11:35:18;30.20;57.60
32097;DHT22;18610;49.916;8.284;2022-07-23T11:37:47;30.30;56.60
32097;DHT22;18610;49.916;8.284;2022-07-23T11:40:16;30.20;57.30
32097;DHT22;18610;49.916;8.284;2022-07-23T11:42:55;30.20;57.60
32097;DHT22;18610;49.916;8.284;2022-07-23T11:45:23;30.20;57.30
32097;DHT22;18610;49.916;8.284;2022-07-23T11:47:50;30.20;56.70
32097;DHT22;18610;49.916;8.284;2022-07-23T11:50:16;30.10;56.90
32097;DHT22;18610;49.916;8.284;2022-07-23T11:52:43;30.00;57.00
32097;DHT22;18610;49.916;8.284;2022-07-23T11:55:12;30.00;56.80
32097;DHT22;18610;49.916;8.284;2022-07-23T11:57:42;29.90;58.00
32097;DHT22;18610;49.916;8.284;2022-07-23T12:00:10;29.80;57.60
32097;DHT22;18610;49.916;8.284;2022-07-23T12:02:38;29.80;57.60
32097;DHT22;18610;49.916;8.284;2022-07-23T12:05:07;30.20;56.90
32097;DHT22;18610;49.916;8.284;2022-07-23T12:07:36;30.60;57.50
32097;DHT22;18610;49.916;8.284;2022-07-23T12:10:09;30.90;56.90
32097;DHT22;18610;49.916;8.284;2022-07-23T12:12:39;31.30;56.10
32097;DHT22;18610;49.916;8.284;2022-07-23T12:15:07;31.50;55.30
32097;DHT22;18610;49.916;8.284;2022-07-23T12:17:35;31.50;54.40
32097;DHT22;18610;49.916;8.284;2022-07-23T12:20:04;31.20;55.30
32097;DHT22;18610;49.916;8.284;2022-07-23T12:22:37;31.00;55.00
32097;DHT22;18610;49.916;8.284;2022-07-23T12:25:07;30.80;55.20
32097;DHT22;18610;49.916;8.284;2022-07-23T12:27:35;30.70;55.50
32097;DHT22;18610;49.916;8.284;2022-07-23T12:30:17;30.60;55.00
32097;DHT22;18610;49.916;8.284;2022-07-23T12:32:44;30.60;55.90
32097;DHT22;18610;49.916;8.284;2022-07-23T12:35:11;30.70;56.10
32097;DHT22;18610;49.916;8.284;2022-07-23T12:37:40;31.00;55.30
32097;DHT22;18610;49.916;8.284;2022-07-23T12:40:25;31.30;54.30
32097;DHT22;18610;49.916;8.284;2022-07-23T12:42:55;31.70;54.30
32097;DHT22;18610;49.916;8.284;2022-07-23T12:45:24;31.90;53.30
32097;DHT22;18610;49.916;8.284;2022-07-23T12:47:57;32.10;53.60
32097;DHT22;18610;49.916;8.284;2022-07-23T12:50:36;32.40;52.60
32097;DHT22;18610;49.916;8.284;2022-07-23T12:53:05;32.30;51.90
32097;DHT22;18610;49.916;8.284;2022-07-23T12:55:32;32.00;52.10
32097;DHT22;18610;49.916;8.284;2022-07-23T12:58:07;31.80;52.60
32097;DHT22;18610;49.916;8.284;2022-07-23T13:03:33;31.70;53.10
32097;DHT22;18610;49.916;8.284;2022-07-23T13:06:00;31.20;52.00
32097;DHT22;18610;49.916;8.284;2022-07-23T13:08:29;31.00;52.70
32097;DHT22;18610;49.916;8.284;2022-07-23T13:10:56;31.10;53.90
32097;DHT22;18610;49.916;8.284;2022-07-23T13:13:25;31.30;51.60
32097;DHT22;18610;49.916;8.284;2022-07-23T13:15:52;31.20;51.40
32097;DHT22;18610;49.916;8.284;2022-07-23T13:18:20;31.10;51.90
32097;DHT22;18610;49.916;8.284;2022-07-23T13:20:49;31.10;52.90
32097;DHT22;18610;49.916;8.284;2022-07-23T13:23:17;31.50;51.40
32097;DHT22;18610;49.916;8.284;2022-07-23T13:25:45;31.80;51.60
32097;DHT22;18610;49.916;8.284;2022-07-23T13:28:12;31.90;50.70
32097;DHT22;18610;49.916;8.284;2022-07-23T13:30:39;32.00;49.60
32097;DHT22;18610;49.916;8.284;2022-07-23T13:33:07;32.00;48.70
32097;DHT22;18610;49.916;8.284;2022-07-23T13:35:34;32.20;48.50
32097;DHT22;18610;49.916;8.284;2022-07-23T13:38:03;32.40;47.90
32097;DHT22;18610;49.916;8.284;2022-07-23T13:40:33;32.50;47.50
32097;DHT22;18610;49.916;8.284;2022-07-23T13:42:59;32.70;46.80
32097;DHT22;18610;49.916;8.284;2022-07-23T13:45:26;32.70;46.80
32097;DHT22;18610;49.916;8.284;2022-07-23T13:47:53;32.80;48.80
32097;DHT22;18610;49.916;8.284;2022-07-23T13:50:20;33.00;48.00
32097;DHT22;18610;49.916;8.284;2022-07-23T13:52:47;33.30;48.10
32097;DHT22;18610;49.916;8.284;2022-07-23T13:55:15;33.60;48.20
32097;DHT22;18610;49.916;8.284;2022-07-23T13:57:42;33.90;47.10
32097;DHT22;18610;49.916;8.284;2022-07-23T14:00:10;34.20;46.80
32097;DHT22;18610;49.916;8.284;2022-07-23T14:02:38;34.40;45.80
32097;DHT22;18610;49.916;8.284;2022-07-23T14:05:08;34.40;45.70
32097;DHT22;18610;49.916;8.284;2022-07-23T14:07:35;34.50;45.60
32097;DHT22;18610;49.916;8.284;2022-07-23T14:10:04;34.50;45.00
32097;DHT22;18610;49.916;8.284;2022-07-23T14:12:32;34.40;43.80
32097;DHT22;18610;49.916;8.284;2022-07-23T14:15:00;34.20;43.80
32097;DHT22;18610;49.916;8.284;2022-07-23T14:17:27;34.00;43.80
32097;DHT22;18610;49.916;8.284;2022-07-23T14:19:53;33.80;44.20
32097;DHT22;18610;49.916;8.284;2022-07-23T14:22:20;33.90;44.40
32097;DHT22;18610;49.916;8.284;2022-07-23T14:24:47;33.90;44.60
32097;DHT22;18610;49.916;8.284;2022-07-23T14:27:14;34.00;43.60
32097;DHT22;18610;49.916;8.284;2022-07-23T14:29:43;33.90;44.00
32097;DHT22;18610;49.916;8.284;2022-07-23T14:32:10;34.00;44.30
32097;DHT22;18610;49.916;8.284;2022-07-23T14:34:36;33.80;44.10
32097;DHT22;18610;49.916;8.284;2022-07-23T14:37:04;33.80;44.20
32097;DHT22;18610;49.916;8.284;2022-07-23T14:39:30;33.50;44.00
32097;DHT22;18610;49.916;8.284;2022-07-23T14:41:58;33.10;43.80
32097;DHT22;18610;49.916;8.284;2022-07-23T14:44:24;32.70;43.90
32097;DHT22;18610;49.916;8.284;2022-07-23T14:46:53;32.30;44.40
32097;DHT22;18610;49.916;8.284;2022-07-23T14:49:20;32.00;45.90
32097;DHT22;18610;49.916;8.284;2022-07-23T14:51:47;32.00;45.40
32097;DHT22;18610;49.916;8.284;2022-07-23T14:54:13;32.10;45.40
32097;DHT22;18610;49.916;8.284;2022-07-23T14:56:41;32.10;45.70
32097;DHT22;18610;49.916;8.284;2022-07-23T14:59:08;32.00;45.00
32097;DHT22;18610;49.916;8.284;2022-07-23T15:01:35;31.70;46.50
32097;DHT22;18610;49.916;8.284;2022-07-23T15:04:04;31.40;46.30
32097;DHT22;18610;49.916;8.284;2022-07-23T15:06:31;31.50;46.70
32097;DHT22;18610;49.916;8.284;2022-07-23T15:08:58;31.60;45.80
32097;DHT22;18610;49.916;8.284;2022-07-23T15:11:25;31.70;46.60
32097;DHT22;18610;49.916;8.284;2022-07-23T15:13:52;31.70;46.60
32097;DHT22;18610;49.916;8.284;2022-07-23T15:16:19;31.90;46.20
32097;DHT22;18610;49.916;8.284;2022-07-23T15:18:46;31.90;46.20
32097;DHT22;18610;49.916;8.284;2022-07-23T15:21:14;31.70;45.70
32097;DHT22;18610;49.916;8.284;2022-07-23T15:23:41;31.50;45.70
32097;DHT22;18610;49.916;8.284;2022-07-23T15:26:08;31.50;45.90
32097;DHT22;18610;49.916;8.284;2022-07-23T15:28:36;31.30;45.00
32097;DHT22;18610;49.916;8.284;2022-07-23T15:31:03;31.30;46.00
32097;DHT22;18610;49.916;8.284;2022-07-23T15:33:31;31.40;46.40
32097;DHT22;18610;49.916;8.284;2022-07-23T15:35:58;31.60;46.30
32097;DHT22;18610;49.916;8.284;2022-07-23T15:38:26;31.80;45.80
32097;DHT22;18610;49.916;8.284;2022-07-23T15:40:54;32.00;45.00
32097;DHT22;18610;49.916;8.284;2022-07-23T15:43:21;32.10;44.90